createdAt,value
2023-02-25T00:02:14.591Z,0.80
2023-02-25T00:04:41.034Z,0.45
2023-02-25T00:07:08.039Z,0.73
2023-02-25T00:09:34.538Z,0.60
2023-02-25T00:12:03.053Z,0.52
2023-02-25T00:14:29.454Z,0.50
2023-02-25T00:16:56.175Z,0.40
2023-02-25T00:19:25.497Z,0.30
2023-02-25T00:21:51.950Z,0.38
2023-02-25T00:24:18.410Z,0.80
2023-02-25T00:26:45.010Z,0.70
2023-02-25T00:29:11.409Z,0.45
2023-02-25T00:31:38.031Z,0.60
2023-02-25T00:34:04.551Z,0.40
2023-02-25T00:36:30.957Z,0.77
2023-02-25T00:38:57.419Z,0.63
2023-02-25T00:41:28.074Z,0.40
2023-02-25T00:44:01.725Z,0.40
2023-02-25T00:46:29.585Z,0.40
2023-02-25T00:48:56.180Z,0.80
2023-02-25T00:51:24.571Z,0.38
2023-02-25T00:53:51.864Z,0.73
2023-02-25T00:56:18.264Z,0.30
2023-02-25T00:58:45.000Z,0.60
2023-02-25T01:01:21.633Z,0.47
2023-02-25T01:03:48.563Z,0.45
2023-02-25T01:06:15.222Z,0.30
2023-02-25T01:08:41.865Z,0.50
2023-02-25T01:11:15.695Z,0.45
2023-02-25T01:13:42.254Z,0.93
2023-02-25T01:16:16.404Z,0.65
2023-02-25T01:18:42.872Z,0.40
2023-02-25T01:21:15.736Z,0.52
2023-02-25T01:23:42.149Z,0.50
2023-02-25T01:26:08.530Z,0.43
2023-02-25T01:28:34.940Z,0.55
2023-02-25T01:31:01.496Z,0.30
2023-02-25T01:33:27.982Z,0.40
2023-02-25T01:35:54.443Z,0.40
2023-02-25T01:38:20.849Z,0.35
2023-02-25T01:40:47.254Z,0.40
2023-02-25T01:43:15.362Z,0.38
2023-02-25T01:45:43.236Z,0.55
2023-02-25T01:48:20.975Z,0.20
2023-02-25T01:50:52.074Z,0.13
2023-02-25T01:53:22.876Z,0.20
2023-02-25T01:55:49.288Z,0.35
2023-02-25T01:58:15.754Z,0.20
2023-02-25T02:00:42.219Z,0.20
2023-02-25T02:03:08.766Z,0.22
2023-02-25T02:05:41.036Z,0.35
2023-02-25T02:08:07.438Z,0.20
2023-02-25T02:10:33.833Z,0.40
2023-02-25T02:13:00.222Z,0.40
2023-02-25T02:15:26.629Z,0.30
2023-02-25T02:18:02.465Z,0.22
2023-02-25T02:23:25.003Z,0.60
2023-02-25T02:26:04.691Z,0.30
2023-02-25T02:28:58.704Z,0.30
2023-02-25T02:31:34.138Z,0.30
2023-02-25T02:34:37.598Z,0.55
2023-02-25T02:37:37.839Z,0.30
2023-02-25T02:40:04.101Z,0.40
2023-02-25T02:42:52.310Z,0.20
2023-02-25T02:45:21.528Z,0.20
2023-02-25T02:48:05.761Z,0.30
2023-02-25T02:50:34.731Z,0.30
2023-02-25T02:53:05.838Z,0.60
2023-02-25T02:55:37.790Z,0.20
2023-02-25T02:58:29.313Z,0.30
2023-02-25T03:01:02.419Z,0.47
2023-02-25T03:03:31.393Z,0.40
2023-02-25T03:05:57.790Z,0.40
2023-02-25T03:08:26.872Z,0.40
2023-02-25T03:10:53.287Z,0.40
2023-02-25T03:13:19.707Z,0.50
2023-02-25T03:15:46.198Z,0.50
2023-02-25T03:18:19.700Z,0.38
2023-02-25T03:20:47.642Z,0.63
2023-02-25T03:23:19.505Z,0.55
2023-02-25T03:25:55.604Z,0.50
2023-02-25T03:28:23.883Z,0.40
2023-02-25T03:31:01.669Z,0.73
2023-02-25T03:33:42.720Z,0.98
2023-02-25T03:36:12.060Z,0.50
2023-02-25T03:38:46.509Z,0.80
2023-02-25T03:41:13.317Z,0.82
2023-02-25T03:43:45.790Z,0.50
2023-02-25T03:46:12.715Z,0.50
2023-02-25T03:48:39.149Z,0.73
2023-02-25T03:51:05.649Z,0.40
2023-02-25T03:53:34.889Z,0.38
2023-02-25T03:56:04.419Z,0.52
2023-02-25T03:58:35.484Z,0.95
2023-02-25T04:01:03.452Z,0.85
2023-02-25T04:03:29.866Z,0.45
2023-02-25T04:05:56.252Z,0.80
2023-02-25T04:08:22.647Z,0.68
2023-02-25T04:10:49.028Z,0.65
2023-02-25T04:13:15.691Z,0.65
2023-02-25T04:15:42.590Z,0.40
2023-02-25T04:18:09.216Z,0.40
2023-02-25T04:20:35.597Z,1.15
2023-02-25T04:23:02.078Z,0.55
2023-02-25T04:25:28.524Z,0.80
2023-02-25T04:27:54.947Z,1.27
2023-02-25T04:30:21.376Z,1.20
2023-02-25T04:32:47.949Z,0.88
2023-02-25T04:35:14.385Z,1.30
2023-02-25T04:37:40.994Z,0.73
2023-02-25T04:40:07.977Z,0.60
2023-02-25T04:42:34.375Z,0.40
2023-02-25T04:45:00.814Z,0.60
2023-02-25T04:47:27.264Z,0.40
2023-02-25T04:49:53.649Z,0.52
2023-02-25T04:52:20.074Z,0.40
2023-02-25T04:54:46.490Z,0.57
2023-02-25T04:57:12.893Z,0.50
2023-02-25T04:59:39.328Z,0.40
2023-02-25T05:02:05.824Z,0.68
2023-02-25T05:04:32.309Z,0.60
2023-02-25T05:06:58.729Z,0.40
2023-02-25T05:09:25.205Z,1.58
2023-02-25T05:11:51.587Z,0.30
2023-02-25T05:14:17.992Z,0.80
2023-02-25T05:16:44.525Z,0.20
2023-02-25T05:19:18.197Z,0.50
2023-02-25T05:21:44.602Z,0.77
2023-02-25T05:24:11.253Z,0.63
2023-02-25T05:26:37.653Z,0.47
2023-02-25T05:29:04.072Z,0.73
2023-02-25T05:31:30.557Z,0.47
2023-02-25T05:33:57.045Z,0.28
2023-02-25T05:36:26.641Z,0.38
2023-02-25T05:38:54.865Z,0.28
2023-02-25T05:41:21.266Z,0.45
2023-02-25T05:43:47.663Z,0.38
2023-02-25T05:46:14.081Z,0.75
2023-02-25T05:48:41.462Z,0.70
2023-02-25T05:51:13.743Z,0.28
2023-02-25T05:53:40.242Z,0.57
2023-02-25T05:56:07.449Z,0.63
2023-02-25T05:58:33.878Z,0.50
2023-02-25T06:01:00.428Z,0.45
2023-02-25T06:03:26.858Z,0.40
2023-02-25T06:05:53.311Z,0.35
2023-02-25T06:08:19.735Z,0.30
2023-02-25T06:10:46.146Z,0.52
2023-02-25T06:13:12.552Z,0.40
2023-02-25T06:15:39.748Z,0.50
2023-02-25T06:18:06.276Z,0.60
2023-02-25T06:20:33.095Z,0.47
2023-02-25T06:22:59.482Z,0.38
2023-02-25T06:25:26.347Z,0.30
2023-02-25T06:27:52.730Z,0.38
2023-02-25T06:30:19.172Z,0.30
2023-02-25T06:32:45.622Z,0.40
2023-02-25T06:35:12.144Z,0.40
2023-02-25T06:37:38.564Z,0.47
2023-02-25T06:40:05.402Z,0.88
2023-02-25T06:42:31.808Z,0.22
2023-02-25T06:44:58.257Z,0.45
2023-02-25T06:47:24.640Z,0.57
2023-02-25T06:49:51.085Z,0.32
2023-02-25T06:52:17.496Z,0.40
2023-02-25T06:54:43.886Z,0.50
2023-02-25T06:57:10.305Z,0.45
2023-02-25T06:59:36.693Z,0.38
2023-02-25T07:02:03.135Z,0.50
2023-02-25T07:04:31.388Z,0.40
2023-02-25T07:06:57.843Z,0.47
2023-02-25T07:09:24.229Z,0.90
2023-02-25T07:11:50.797Z,0.50
2023-02-25T07:14:17.194Z,0.70
2023-02-25T07:16:43.597Z,0.57
2023-02-25T07:19:09.987Z,0.57
2023-02-25T07:21:36.406Z,0.55
2023-02-25T07:24:02.811Z,0.70
2023-02-25T07:26:29.300Z,0.60
2023-02-25T07:28:56.872Z,0.65
2023-02-25T07:31:23.596Z,0.60
2023-02-25T07:33:50.299Z,0.70
2023-02-25T07:36:16.868Z,0.70
2023-02-25T07:38:43.462Z,0.75
2023-02-25T07:41:11.909Z,0.68
2023-02-25T07:43:38.366Z,0.40
2023-02-25T07:46:04.974Z,0.73
2023-02-25T07:48:31.686Z,0.55
2023-02-25T07:51:11.278Z,0.60
2023-02-25T07:53:37.688Z,0.57
2023-02-25T07:56:05.199Z,0.52
2023-02-25T07:58:32.179Z,0.75
2023-02-25T08:00:58.580Z,0.93
2023-02-25T08:03:24.985Z,1.42
2023-02-25T08:05:51.847Z,0.60
2023-02-25T08:08:18.268Z,0.65
2023-02-25T08:10:44.689Z,0.80
2023-02-25T08:13:11.100Z,0.50
2023-02-25T08:15:41.769Z,0.90
2023-02-25T08:18:08.200Z,0.60
2023-02-25T08:20:34.776Z,0.50
2023-02-25T08:23:01.195Z,0.28
2023-02-25T08:25:27.582Z,0.80
2023-02-25T08:27:54.010Z,0.60
2023-02-25T08:30:20.387Z,0.50
2023-02-25T08:32:47.561Z,0.50
2023-02-25T08:35:14.274Z,0.40
2023-02-25T08:37:40.675Z,0.47
2023-02-25T08:40:07.550Z,0.43
2023-02-25T08:42:33.973Z,0.60
2023-02-25T08:45:00.372Z,0.45
2023-02-25T08:47:26.773Z,0.45
2023-02-25T08:49:53.202Z,0.63
2023-02-25T08:52:19.682Z,0.47
2023-02-25T08:54:46.124Z,0.40
2023-02-25T08:57:12.513Z,0.50
2023-02-25T08:59:38.920Z,0.60
2023-02-25T09:02:05.703Z,0.50
2023-02-25T09:04:32.195Z,0.60
2023-02-25T09:06:58.623Z,0.70
2023-02-25T09:09:25.041Z,0.30
2023-02-25T09:11:51.465Z,0.50
2023-02-25T09:14:17.961Z,0.40
2023-02-25T09:16:44.529Z,0.40
2023-02-25T09:19:10.995Z,0.60
2023-02-25T09:21:37.382Z,0.30
2023-02-25T09:24:04.013Z,0.65
2023-02-25T09:26:30.409Z,0.70
2023-02-25T09:29:00.248Z,0.32
2023-02-25T09:31:27.021Z,0.60
2023-02-25T09:33:53.652Z,0.50
2023-02-25T09:36:20.215Z,0.57
2023-02-25T09:38:47.242Z,0.35
2023-02-25T09:41:18.433Z,0.50
2023-02-25T09:43:44.820Z,0.60
2023-02-25T09:46:13.814Z,0.90
2023-02-25T09:49:06.734Z,0.60
2023-02-25T09:51:35.889Z,0.43
2023-02-25T09:54:08.505Z,0.30
2023-02-25T09:56:35.025Z,0.40
2023-02-25T09:59:01.493Z,0.30
2023-02-25T10:01:47.495Z,0.55
2023-02-25T10:04:27.048Z,0.88
2023-02-25T10:06:53.473Z,0.70
2023-02-25T10:09:44.687Z,0.22
2023-02-25T10:12:33.074Z,0.03
2023-02-25T10:15:03.505Z,0.40
2023-02-25T10:17:37.954Z,0.60
2023-02-25T10:20:41.596Z,0.50
2023-02-25T10:23:16.941Z,0.60
2023-02-25T10:25:47.436Z,0.65
2023-02-25T10:28:15.536Z,0.40
2023-02-25T10:30:44.980Z,0.40
2023-02-25T10:33:16.845Z,0.40
2023-02-25T10:35:43.228Z,0.30
2023-02-25T10:38:12.620Z,0.40
2023-02-25T10:40:39.620Z,0.20
2023-02-25T10:43:20.223Z,0.15
2023-02-25T10:45:49.720Z,0.70
2023-02-25T10:48:21.497Z,0.77
2023-02-25T10:51:10.300Z,0.50
2023-02-25T10:53:36.736Z,0.50
2023-02-25T10:56:03.165Z,0.50
2023-02-25T10:59:00.634Z,0.50
2023-02-25T11:01:34.579Z,0.50
2023-02-25T11:04:04.796Z,0.38
2023-02-25T11:06:35.158Z,0.40
2023-02-25T11:09:03.225Z,0.50
2023-02-25T11:11:32.262Z,0.40
2023-02-25T11:14:05.846Z,0.80
2023-02-25T11:16:37.033Z,0.70
2023-02-25T11:19:13.533Z,0.30
2023-02-25T11:21:39.945Z,0.38
2023-02-25T11:24:15.391Z,0.75
2023-02-25T11:26:44.193Z,0.38
2023-02-25T11:29:17.043Z,0.52
2023-02-25T11:31:43.627Z,1.38
2023-02-25T11:34:23.382Z,0.40
2023-02-25T11:36:51.210Z,0.50
2023-02-25T11:39:17.780Z,0.63
2023-02-25T11:41:45.408Z,0.40
2023-02-25T11:44:28.388Z,0.40
2023-02-25T11:47:01.595Z,0.70
2023-02-25T11:49:44.541Z,0.60
2023-02-25T11:52:24.727Z,0.47
2023-02-25T11:55:01.311Z,0.30
2023-02-25T11:57:43.867Z,0.20
2023-02-25T12:00:21.854Z,0.43
2023-02-25T12:02:54.213Z,0.20
2023-02-25T12:05:35.692Z,0.70
2023-02-25T12:08:47.020Z,0.50
2023-02-25T12:11:31.760Z,0.55
2023-02-25T12:14:35.168Z,0.50
2023-02-25T12:17:07.572Z,0.63
2023-02-25T12:19:48.472Z,1.08
2023-02-25T12:22:36.040Z,0.25
2023-02-25T12:27:44.069Z,0.45
2023-02-25T12:30:33.822Z,0.60
2023-02-25T12:33:09.930Z,0.77
2023-02-25T12:36:00.330Z,0.80
2023-02-25T12:38:54.398Z,0.30
2023-02-25T12:41:29.912Z,0.60
2023-02-25T12:44:14.514Z,0.50
2023-02-25T12:47:14.443Z,0.70
2023-02-25T12:49:46.743Z,0.77
2023-02-25T12:52:20.144Z,0.50
2023-02-25T12:55:09.591Z,0.98
2023-02-25T12:58:00.718Z,0.40
2023-02-25T13:00:29.872Z,0.70
2023-02-25T13:03:33.866Z,0.98
2023-02-25T13:06:07.033Z,1.05
2023-02-25T13:08:39.149Z,0.40
2023-02-25T13:11:48.224Z,0.50
2023-02-25T13:14:32.905Z,0.68
2023-02-25T13:17:20.937Z,0.57
2023-02-25T13:19:47.217Z,0.50
2023-02-25T13:23:11.900Z,0.65
2023-02-25T13:26:17.337Z,0.47
2023-02-25T13:29:11.421Z,0.75
2023-02-25T13:31:41.000Z,0.63
2023-02-25T13:34:19.542Z,0.60
2023-02-25T13:37:03.389Z,0.80
2023-02-25T13:40:21.541Z,0.50
2023-02-25T13:43:26.996Z,0.50
2023-02-25T13:46:09.548Z,0.57
2023-02-25T13:48:57.224Z,0.70
2023-02-25T13:54:20.865Z,0.52
2023-02-25T13:56:50.219Z,0.60
2023-02-25T13:59:18.449Z,0.80
2023-02-25T14:02:07.627Z,0.63
2023-02-25T14:04:55.586Z,0.60
2023-02-25T14:07:46.711Z,0.50
2023-02-25T14:10:24.193Z,0.75
2023-02-25T14:13:15.706Z,0.60
2023-02-25T14:16:14.524Z,0.40
2023-02-25T14:18:40.818Z,0.60
2023-02-25T14:21:34.779Z,0.55
2023-02-25T14:24:08.896Z,0.60
2023-02-25T14:26:57.477Z,1.00
2023-02-25T14:29:34.868Z,0.60
2023-02-25T14:32:20.570Z,0.63
2023-02-25T14:34:58.372Z,0.30
2023-02-25T14:37:54.709Z,0.35
2023-02-25T14:40:46.761Z,0.70
2023-02-25T14:43:30.901Z,0.80
2023-02-25T14:46:25.447Z,0.52
2023-02-25T14:49:05.743Z,0.38
2023-02-25T14:51:38.115Z,0.55
2023-02-25T14:54:04.447Z,0.38
2023-02-25T14:56:47.654Z,0.35
2023-02-25T14:59:26.097Z,0.63
2023-02-25T15:02:20.947Z,0.70
2023-02-25T15:05:05.521Z,1.00
2023-02-25T15:07:50.058Z,0.40
2023-02-25T15:10:50.812Z,0.52
2023-02-25T15:13:25.351Z,0.60
2023-02-25T15:16:00.760Z,1.15
2023-02-25T15:18:39.270Z,0.68
2023-02-25T15:21:41.513Z,0.60
2023-02-25T15:24:10.436Z,0.93
2023-02-25T15:26:47.546Z,0.60
2023-02-25T15:29:36.831Z,0.80
2023-02-25T15:32:25.806Z,0.60
2023-02-25T15:35:06.001Z,0.40
2023-02-25T15:37:36.715Z,0.40
2023-02-25T15:40:15.076Z,0.60
2023-02-25T15:42:45.417Z,1.00
2023-02-25T15:45:27.554Z,0.68
2023-02-25T15:48:12.242Z,0.82
2023-02-25T15:50:41.596Z,0.82
2023-02-25T15:53:20.667Z,1.20
2023-02-25T15:55:54.177Z,0.85
2023-02-25T15:58:23.661Z,0.65
2023-02-25T16:00:53.990Z,0.82
2023-02-25T16:03:32.969Z,0.70
2023-02-25T16:06:20.625Z,0.60
2023-02-25T16:09:07.644Z,0.40
2023-02-25T16:11:47.695Z,0.60
2023-02-25T16:14:31.588Z,0.63
2023-02-25T16:17:10.247Z,0.80
2023-02-25T16:19:37.069Z,0.68
2023-02-25T16:22:09.226Z,0.70
2023-02-25T16:24:36.086Z,0.70
2023-02-25T16:27:02.391Z,0.70
2023-02-25T16:29:51.580Z,0.50
2023-02-25T16:32:36.211Z,0.90
2023-02-25T16:35:25.403Z,0.80
2023-02-25T16:38:09.968Z,0.70
2023-02-25T16:40:40.621Z,1.20
2023-02-25T16:43:10.133Z,1.40
2023-02-25T16:45:41.676Z,1.05
2023-02-25T16:48:14.650Z,2.13
2023-02-25T16:50:41.135Z,1.95
2023-02-25T16:53:12.201Z,1.70
2023-02-25T16:55:39.794Z,2.08
2023-02-25T16:58:18.447Z,1.20
2023-02-25T17:00:57.885Z,0.65
2023-02-25T17:03:28.945Z,0.80
2023-02-25T17:05:59.174Z,0.52
2023-02-25T17:08:25.578Z,0.70
2023-02-25T17:10:53.238Z,0.60
2023-02-25T17:13:24.135Z,0.52
2023-02-25T17:15:50.592Z,0.25
2023-02-25T17:18:19.774Z,0.60
2023-02-25T17:20:46.305Z,0.80
2023-02-25T17:23:14.992Z,0.60
2023-02-25T17:25:46.040Z,0.95
2023-02-25T17:28:24.692Z,0.47
2023-02-25T17:30:51.528Z,0.98
2023-02-25T17:33:27.051Z,0.40
2023-02-25T17:36:02.100Z,0.52
2023-02-25T17:38:29.511Z,0.90
2023-02-25T17:40:57.696Z,0.73
2023-02-25T17:43:33.890Z,0.70
2023-02-25T17:46:22.711Z,0.70
2023-02-25T17:49:01.060Z,0.85
2023-02-25T17:51:33.672Z,0.77
2023-02-25T17:54:05.111Z,0.93
2023-02-25T17:56:32.058Z,0.70
2023-02-25T17:59:27.706Z,0.55
2023-02-25T18:02:00.073Z,0.40
2023-02-25T18:04:40.120Z,0.70
2023-02-25T18:07:20.803Z,0.13
2023-02-25T18:09:47.892Z,0.50
2023-02-25T18:12:26.594Z,0.45
2023-02-25T18:15:04.036Z,0.77
2023-02-25T18:17:37.213Z,0.40
2023-02-25T18:20:06.142Z,0.73
2023-02-25T18:22:40.586Z,1.05
2023-02-25T18:25:36.135Z,0.93
2023-02-25T18:28:03.305Z,1.08
2023-02-25T18:30:30.911Z,1.17
2023-02-25T18:32:57.450Z,1.50
2023-02-25T18:35:23.944Z,2.05
2023-02-25T18:37:51.483Z,0.93
2023-02-25T18:40:29.226Z,1.15
2023-02-25T18:42:56.012Z,0.85
2023-02-25T18:45:23.629Z,0.77
2023-02-25T18:47:50.492Z,0.50
2023-02-25T18:50:17.346Z,0.60
2023-02-25T18:52:43.868Z,0.47
2023-02-25T18:55:16.727Z,0.98
2023-02-25T18:57:43.339Z,0.93
2023-02-25T19:00:10.994Z,1.35
2023-02-25T19:02:56.823Z,2.80
2023-02-25T19:05:25.535Z,2.00
2023-02-25T19:07:52.387Z,4.32
2023-02-25T19:10:25.537Z,1.65
2023-02-25T19:12:53.781Z,6.72
2023-02-25T19:15:21.265Z,4.97
2023-02-25T19:17:48.436Z,5.70
2023-02-25T19:20:16.326Z,3.42
2023-02-25T19:22:43.868Z,1.80
2023-02-25T19:25:53.687Z,2.15
2023-02-25T19:28:20.123Z,1.90
2023-02-25T19:30:46.532Z,1.75
2023-02-25T19:33:13.210Z,0.98
2023-02-25T19:35:41.807Z,0.75
2023-02-25T19:38:16.641Z,0.90
2023-02-25T19:40:43.175Z,1.10
2023-02-25T19:43:10.189Z,0.80
2023-02-25T19:45:36.574Z,1.38
2023-02-25T19:48:03.280Z,1.70
2023-02-25T19:50:29.798Z,1.85
2023-02-25T19:52:56.305Z,1.92
2023-02-25T19:55:22.808Z,1.65
2023-02-25T19:57:49.388Z,2.45
2023-02-25T20:00:18.983Z,3.30
2023-02-25T20:02:45.716Z,3.80
2023-02-25T20:05:12.348Z,3.85
2023-02-25T20:07:38.928Z,3.72
2023-02-25T20:10:06.969Z,2.88
2023-02-25T20:12:33.558Z,3.53
2023-02-25T20:14:59.984Z,1.38
2023-02-25T20:17:26.383Z,0.80
2023-02-25T20:19:52.844Z,1.35
2023-02-25T20:22:19.232Z,1.30
2023-02-25T20:24:45.661Z,1.08
2023-02-25T20:27:12.059Z,1.80
2023-02-25T20:29:38.506Z,1.38
2023-02-25T20:32:04.982Z,3.25
2023-02-25T20:34:31.573Z,1.50
2023-02-25T20:37:11.329Z,3.75
2023-02-25T20:39:37.629Z,1.17
2023-02-25T20:42:12.209Z,0.60
2023-02-25T20:44:39.165Z,0.68
2023-02-25T20:47:05.802Z,0.90
2023-02-25T20:49:32.327Z,0.80
2023-02-25T20:51:59.032Z,1.00
2023-02-25T20:54:25.473Z,0.88
2023-02-25T20:56:51.895Z,0.80
2023-02-25T20:59:18.357Z,0.80
2023-02-25T21:01:44.839Z,0.98
2023-02-25T21:04:11.411Z,1.10
2023-02-25T21:06:37.856Z,1.63
2023-02-25T21:09:05.172Z,1.17
2023-02-25T21:11:31.626Z,1.20
2023-02-25T21:13:58.039Z,0.98
2023-02-25T21:16:24.882Z,1.20
2023-02-25T21:18:51.451Z,1.52
2023-02-25T21:21:18.990Z,1.45
2023-02-25T21:23:45.389Z,1.15
2023-02-25T21:26:11.888Z,1.15
2023-02-25T21:28:38.484Z,1.70
2023-02-25T21:31:06.926Z,1.40
2023-02-25T21:33:33.444Z,1.08
2023-02-25T21:35:59.950Z,1.00
2023-02-25T21:38:26.442Z,0.93
2023-02-25T21:40:52.887Z,1.52
2023-02-25T21:43:19.778Z,1.30
2023-02-25T21:45:56.248Z,0.73
2023-02-25T21:48:23.177Z,1.10
2023-02-25T21:50:49.627Z,2.75
2023-02-25T21:53:16.084Z,2.08
2023-02-25T21:55:42.617Z,3.72
2023-02-25T21:58:09.675Z,3.22
2023-02-25T22:00:36.086Z,1.83
2023-02-25T22:03:02.506Z,3.15
2023-02-25T22:05:28.929Z,2.95
2023-02-25T22:07:55.362Z,2.35
2023-02-25T22:10:22.300Z,1.30
2023-02-25T22:12:48.772Z,1.90
2023-02-25T22:15:15.164Z,2.03
2023-02-25T22:17:41.581Z,1.95
2023-02-25T22:20:08.519Z,1.33
2023-02-25T22:22:34.940Z,1.63
2023-02-25T22:25:01.326Z,1.92
2023-02-25T22:27:27.769Z,3.40
2023-02-25T22:29:54.165Z,2.05
2023-02-25T22:32:20.673Z,2.38
2023-02-25T22:34:47.101Z,2.20
2023-02-25T22:37:13.529Z,1.10
2023-02-25T22:39:39.918Z,0.93
2023-02-25T22:42:06.345Z,1.10
2023-02-25T22:44:32.744Z,0.80
2023-02-25T22:46:59.167Z,0.75
2023-02-25T22:49:25.545Z,1.05
2023-02-25T22:51:51.937Z,1.77
2023-02-25T22:54:18.838Z,2.33
2023-02-25T22:56:45.810Z,2.05
2023-02-25T22:59:12.349Z,1.17
2023-02-25T23:01:39.054Z,1.30
2023-02-25T23:04:05.685Z,1.58
2023-02-25T23:06:42.988Z,1.48
2023-02-25T23:09:10.732Z,1.70
2023-02-25T23:11:37.123Z,2.08
2023-02-25T23:14:03.656Z,2.35
2023-02-25T23:16:32.692Z,1.70
2023-02-25T23:19:00.102Z,1.88
2023-02-25T23:21:26.846Z,1.02
2023-02-25T23:23:54.924Z,0.80
2023-02-25T23:26:24.350Z,1.08
2023-02-25T23:28:54.859Z,0.65
2023-02-25T23:31:23.880Z,0.85
2023-02-25T23:33:50.363Z,0.85
2023-02-25T23:36:16.789Z,0.68
2023-02-25T23:38:43.202Z,0.80
2023-02-25T23:41:09.584Z,0.88
2023-02-25T23:43:36.027Z,0.98
2023-02-25T23:46:05.624Z,0.93
2023-02-25T23:48:32.105Z,0.55
2023-02-25T23:51:05.020Z,0.45
2023-02-25T23:53:31.426Z,0.65
2023-02-25T23:55:57.842Z,0.55
2023-02-25T23:58:24.241Z,0.70
